createdAt,value
2018-12-07T00:01:37.926Z,100577.75
2018-12-07T00:04:06.845Z,100575.56
2018-12-07T00:06:35.833Z,100575.17
2018-12-07T00:09:06.108Z,100572.59
2018-12-07T00:11:35.085Z,100573.49
2018-12-07T00:14:04.149Z,100570.89
2018-12-07T00:16:33.082Z,100571.31
2018-12-07T00:19:02.302Z,100566.98
2018-12-07T00:21:31.305Z,100570.88
2018-12-07T00:24:00.185Z,100559.59
2018-12-07T00:26:29.201Z,100568.23
2018-12-07T00:28:58.226Z,100571.28
2018-12-07T00:31:27.210Z,100569.52
2018-12-07T00:33:56.229Z,100575.56
2018-12-07T00:36:25.270Z,100577.80
2018-12-07T00:38:54.181Z,100572.20
2018-12-07T00:41:23.094Z,100569.14
2018-12-07T00:43:51.977Z,100574.33
2018-12-07T00:46:24.871Z,100576.89
2018-12-07T00:51:36.037Z,100573.03
2018-12-07T00:54:05.045Z,100579.94
2018-12-07T00:56:34.073Z,100576.50
2018-12-07T00:59:03.097Z,100580.84
2018-12-07T01:01:32.148Z,100580.39
2018-12-07T01:04:01.112Z,100579.97
2018-12-07T01:06:30.009Z,100569.61
2018-12-07T01:08:59.033Z,100563.96
2018-12-07T01:11:27.879Z,100568.26
2018-12-07T01:13:56.813Z,100561.80
2018-12-07T01:16:25.850Z,100556.19
2018-12-07T01:18:54.969Z,100557.05
2018-12-07T01:21:24.048Z,100547.12
2018-12-07T01:23:53.085Z,100550.12
2018-12-07T01:26:22.047Z,100544.50
2018-12-07T01:28:51.145Z,100545.37
2018-12-07T01:31:20.069Z,100544.53
2018-12-07T01:33:49.081Z,100549.70
2018-12-07T01:36:18.090Z,100547.12
2018-12-07T01:38:47.130Z,100554.05
2018-12-07T01:41:16.096Z,100550.55
2018-12-07T01:43:45.105Z,100543.62
2018-12-07T01:46:14.013Z,100548.81
2018-12-07T01:48:42.946Z,100552.70
2018-12-07T01:51:11.843Z,100548.36
2018-12-07T01:53:40.958Z,100547.55
2018-12-07T01:56:09.879Z,100551.43
2018-12-07T01:58:38.797Z,100553.59
2018-12-07T02:01:07.802Z,100557.46
2018-12-07T02:03:36.729Z,100549.73
2018-12-07T02:06:05.643Z,100538.92
2018-12-07T02:08:34.532Z,100532.43
2018-12-07T02:11:03.494Z,100534.59
2018-12-07T02:13:32.415Z,100537.63
2018-12-07T02:16:04.376Z,100539.78
2018-12-07T02:18:33.393Z,100535.47
2018-12-07T02:21:02.311Z,100538.89
2018-12-07T02:23:31.809Z,100537.16
2018-12-07T02:26:00.613Z,100534.13
2018-12-07T02:28:29.750Z,100530.99
2018-12-07T02:30:58.826Z,100536.16
2018-12-07T02:33:27.810Z,100534.08
2018-12-07T02:35:56.694Z,100531.54
2018-12-07T02:38:25.714Z,100525.92
2018-12-07T02:40:54.615Z,100522.01
2018-12-07T02:43:23.525Z,100520.72
2018-12-07T02:45:52.510Z,100514.09
2018-12-07T02:48:21.562Z,100511.65
2018-12-07T02:50:50.611Z,100506.49
2018-12-07T02:53:19.677Z,100507.80
2018-12-07T02:55:48.619Z,100513.42
2018-12-07T02:58:17.601Z,100512.98
2018-12-07T03:00:46.521Z,100514.72
2018-12-07T03:03:15.559Z,100505.63
2018-12-07T03:05:44.616Z,100508.66
2018-12-07T03:08:13.549Z,100512.99
2018-12-07T03:10:42.481Z,100515.98
2018-12-07T03:13:11.496Z,100506.89
2018-12-07T03:15:40.561Z,100509.45
2018-12-07T03:18:20.380Z,100511.97
2018-12-07T03:20:49.741Z,100516.75
2018-12-07T03:23:18.754Z,100516.62
2018-12-07T03:25:47.689Z,100517.05
2018-12-07T03:28:16.732Z,100517.65
2018-12-07T03:30:45.688Z,100518.13
2018-12-07T03:33:14.798Z,100516.88
2018-12-07T03:35:43.723Z,100517.28
2018-12-07T03:38:12.757Z,100525.48
2018-12-07T03:40:41.796Z,100519.89
2018-12-07T03:43:10.733Z,100517.29
2018-12-07T03:45:39.638Z,100521.60
2018-12-07T03:48:08.641Z,100525.05
2018-12-07T03:50:37.531Z,100532.32
2018-12-07T03:53:06.433Z,100529.74
2018-12-07T03:55:35.467Z,100532.77
2018-12-07T03:58:04.386Z,100536.56
2018-12-07T04:00:33.446Z,100533.07
2018-12-07T04:03:02.447Z,100536.56
2018-12-07T04:05:31.474Z,100537.44
2018-12-07T04:08:00.369Z,100538.27
2018-12-07T04:10:29.294Z,100534.88
2018-12-07T04:12:58.306Z,100537.47
2018-12-07T04:15:27.261Z,100527.17
2018-12-07T04:17:56.241Z,100534.98
2018-12-07T04:20:25.137Z,100539.27
2018-12-07T04:22:54.075Z,100538.37
2018-12-07T04:25:23.098Z,100537.48
2018-12-07T04:27:52.130Z,100532.97
2018-12-07T04:30:28.075Z,100534.63
2018-12-07T04:32:57.136Z,100537.66
2018-12-07T04:35:26.137Z,100532.11
2018-12-07T04:37:55.041Z,100537.69
2018-12-07T04:40:23.957Z,100536.08
2018-12-07T04:42:53.259Z,100537.94
2018-12-07T04:45:22.209Z,100532.67
2018-12-07T04:47:51.254Z,100534.87
2018-12-07T04:50:20.267Z,100524.03
2018-12-07T04:52:49.275Z,100527.97
2018-12-07T04:55:18.341Z,100524.10
2018-12-07T04:57:47.267Z,100534.95
2018-12-07T05:00:16.185Z,100537.69
2018-12-07T05:02:45.110Z,100539.56
2018-12-07T05:05:14.162Z,100539.98
2018-12-07T05:07:43.615Z,100543.19
2018-12-07T05:10:12.793Z,100541.11
2018-12-07T05:12:41.986Z,100542.05
2018-12-07T05:15:10.904Z,100543.50
2018-12-07T05:17:39.930Z,100546.48
2018-12-07T05:20:08.851Z,100555.05
2018-12-07T05:22:37.737Z,100545.14
2018-12-07T05:25:06.639Z,100557.29
2018-12-07T05:27:35.751Z,100564.47
2018-12-07T05:30:06.311Z,100582.31
2018-12-07T05:32:35.244Z,100567.95
2018-12-07T05:35:04.703Z,100576.69
2018-12-07T05:37:33.801Z,100571.50
2018-12-07T05:40:03.330Z,100565.88
2018-12-07T05:42:32.253Z,100559.03
2018-12-07T05:45:01.252Z,100565.17
2018-12-07T05:47:30.164Z,100564.66
2018-12-07T05:49:59.090Z,100569.78
2018-12-07T05:52:27.897Z,100572.33
2018-12-07T05:54:56.815Z,100575.34
2018-12-07T05:57:25.750Z,100582.28
2018-12-07T05:59:54.685Z,100578.97
2018-12-07T06:02:23.744Z,100581.20
2018-12-07T06:04:52.661Z,100587.28
2018-12-07T06:07:21.566Z,100591.72
2018-12-07T06:09:50.491Z,100587.81
2018-12-07T06:12:19.357Z,100577.88
2018-12-07T06:14:48.389Z,100576.11
2018-12-07T06:17:17.347Z,100583.42
2018-12-07T06:19:46.310Z,100586.47
2018-12-07T06:22:15.846Z,100589.50
2018-12-07T06:24:44.856Z,100597.69
2018-12-07T06:27:13.789Z,100599.84
2018-12-07T06:29:42.701Z,100596.37
2018-12-07T06:32:11.817Z,100602.42
2018-12-07T06:34:40.842Z,100593.03
2018-12-07T06:37:09.766Z,100588.33
2018-12-07T06:39:38.698Z,100578.83
2018-12-07T06:42:07.778Z,100592.66
2018-12-07T06:44:36.706Z,100588.37
2018-12-07T06:47:05.550Z,100589.63
2018-12-07T06:49:34.645Z,100589.59
2018-12-07T06:52:03.889Z,100578.89
2018-12-07T06:54:32.834Z,100570.70
2018-12-07T06:57:01.854Z,100567.19
2018-12-07T06:59:30.893Z,100564.57
2018-12-07T07:01:59.944Z,100585.70
2018-12-07T07:04:28.889Z,100599.93
2018-12-07T07:06:57.829Z,100604.70
2018-12-07T07:09:26.646Z,100608.16
2018-12-07T07:11:55.557Z,100598.81
2018-12-07T07:14:24.527Z,100591.99
2018-12-07T07:16:53.789Z,100587.61
2018-12-07T07:19:22.715Z,100589.27
2018-12-07T07:21:51.623Z,100594.47
2018-12-07T07:24:20.570Z,100593.70
2018-12-07T07:26:49.482Z,100590.20
2018-12-07T07:29:18.286Z,100601.95
2018-12-07T07:31:47.202Z,100587.75
2018-12-07T07:34:16.113Z,100576.95
2018-12-07T07:36:45.038Z,100568.30
2018-12-07T07:39:14.286Z,100565.28
2018-12-07T07:41:43.376Z,100560.55
2018-12-07T07:44:12.476Z,100548.41
2018-12-07T07:46:41.769Z,100552.30
2018-12-07T07:49:10.693Z,100539.33
2018-12-07T07:51:39.642Z,100540.20
2018-12-07T07:54:08.965Z,100530.64
2018-12-07T07:56:37.941Z,100520.67
2018-12-07T07:59:06.791Z,100522.88
2018-12-07T08:01:36.168Z,100527.57
2018-12-07T08:04:05.114Z,100532.84
2018-12-07T08:06:34.684Z,100533.25
2018-12-07T08:09:06.346Z,100531.48
2018-12-07T08:11:35.270Z,100536.66
2018-12-07T08:14:04.308Z,100530.16
2018-12-07T08:16:33.358Z,100531.30
2018-12-07T08:19:02.323Z,100530.38
2018-12-07T08:21:31.253Z,100523.14
2018-12-07T08:24:00.098Z,100516.28
2018-12-07T08:26:29.061Z,100520.19
2018-12-07T08:28:58.002Z,100525.36
2018-12-07T08:31:26.978Z,100510.56
2018-12-07T08:33:55.925Z,100505.36
2018-12-07T08:36:24.868Z,100505.29
2018-12-07T08:38:53.810Z,100506.62
2018-12-07T08:41:22.753Z,100497.04
2018-12-07T08:43:51.601Z,100496.37
2018-12-07T08:46:20.537Z,100487.73
2018-12-07T08:48:49.695Z,100476.05
2018-12-07T08:51:19.017Z,100475.69
2018-12-07T08:53:48.067Z,100477.34
2018-12-07T08:56:16.889Z,100477.89
2018-12-07T08:58:45.845Z,100469.27
2018-12-07T09:01:14.774Z,100464.64
2018-12-07T09:03:43.717Z,100462.12
2018-12-07T09:06:12.966Z,100459.68
2018-12-07T09:08:41.913Z,100457.80
2018-12-07T09:11:10.957Z,100456.63
2018-12-07T09:13:40.053Z,100444.56
2018-12-07T09:16:08.989Z,100432.73
2018-12-07T09:18:37.893Z,100430.16
2018-12-07T09:21:07.818Z,100427.36
2018-12-07T09:23:36.629Z,100416.62
2018-12-07T09:26:05.605Z,100414.53
2018-12-07T09:28:34.633Z,100405.83
2018-12-07T09:31:03.647Z,100410.56
2018-12-07T09:33:32.610Z,100409.73
2018-12-07T09:36:01.622Z,100403.80
2018-12-07T09:38:30.714Z,100395.24
2018-12-07T09:40:59.865Z,100387.00
2018-12-07T09:43:29.013Z,100389.14
2018-12-07T09:45:57.945Z,100385.53
2018-12-07T09:48:26.835Z,100381.48
2018-12-07T09:50:55.785Z,100385.81
2018-12-07T09:53:25.186Z,100378.16
2018-12-07T09:55:54.142Z,100373.38
2018-12-07T09:58:23.098Z,100369.18
2018-12-07T10:00:51.887Z,100366.83
2018-12-07T10:03:20.806Z,100368.67
2018-12-07T10:05:49.821Z,100360.20
2018-12-07T10:08:18.843Z,100359.19
2018-12-07T10:10:47.904Z,100353.03
2018-12-07T10:13:16.940Z,100346.44
2018-12-07T10:15:45.773Z,100330.43
2018-12-07T10:18:14.762Z,100330.64
2018-12-07T10:20:43.573Z,100333.41
2018-12-07T10:23:12.493Z,100334.07
2018-12-07T10:25:41.405Z,100328.50
2018-12-07T10:28:10.341Z,100329.16
2018-12-07T10:30:39.177Z,100324.59
2018-12-07T10:33:08.123Z,100324.09
2018-12-07T10:35:37.042Z,100323.05
2018-12-07T10:38:05.941Z,100319.82
2018-12-07T10:40:34.838Z,100316.78
2018-12-07T10:43:03.702Z,100316.86
2018-12-07T10:45:32.643Z,100310.92
2018-12-07T10:48:01.672Z,100309.22
2018-12-07T10:50:30.490Z,100305.91
2018-12-07T10:52:59.689Z,100304.52
2018-12-07T10:55:28.591Z,100297.31
2018-12-07T10:57:57.497Z,100296.88
2018-12-07T11:00:31.941Z,100297.66
2018-12-07T11:03:06.502Z,100284.02
2018-12-07T11:05:40.927Z,100285.58
2018-12-07T11:08:15.074Z,100280.63
2018-12-07T11:10:49.670Z,100278.55
2018-12-07T11:13:24.078Z,100271.58
2018-12-07T11:15:58.635Z,100271.41
2018-12-07T11:18:33.044Z,100274.70
2018-12-07T11:21:07.530Z,100267.09
2018-12-07T11:23:41.942Z,100270.78
2018-12-07T11:26:16.381Z,100266.66
2018-12-07T11:28:50.669Z,100259.66
2018-12-07T11:31:25.257Z,100256.09
2018-12-07T11:34:01.112Z,100250.09
2018-12-07T11:36:30.054Z,100248.31
2018-12-07T11:38:58.955Z,100242.70
2018-12-07T11:41:27.881Z,100245.55
2018-12-07T11:43:56.925Z,100236.63
2018-12-07T11:46:25.953Z,100227.92
2018-12-07T11:48:54.792Z,100235.80
2018-12-07T11:51:24.210Z,100227.06
2018-12-07T11:53:53.238Z,100223.44
2018-12-07T11:56:22.666Z,100221.45
2018-12-07T11:58:51.605Z,100227.20
2018-12-07T12:01:23.596Z,100222.76
2018-12-07T12:03:53.190Z,100220.14
2018-12-07T12:06:22.137Z,100228.73
2018-12-07T12:08:51.052Z,100217.92
2018-12-07T12:11:20.148Z,100226.62
2018-12-07T12:13:48.971Z,100214.34
2018-12-07T12:16:17.874Z,100216.14
2018-12-07T12:18:46.813Z,100222.21
2018-12-07T12:21:15.758Z,100221.36
2018-12-07T12:23:44.593Z,100225.89
2018-12-07T12:26:14.260Z,100218.84
2018-12-07T12:28:43.417Z,100225.75
2018-12-07T12:31:12.476Z,100213.91
2018-12-07T12:33:41.925Z,100218.75
2018-12-07T12:36:17.066Z,100217.24
2018-12-07T12:38:41.905Z,100215.75
2018-12-07T12:41:10.809Z,100213.09
2018-12-07T12:43:39.844Z,100212.17
2018-12-07T12:46:08.805Z,100205.27
2018-12-07T12:48:37.708Z,100209.08
2018-12-07T12:51:06.709Z,100206.45
2018-12-07T12:53:35.647Z,100197.64
2018-12-07T12:56:04.566Z,100192.03
2018-12-07T12:58:33.698Z,100185.69
2018-12-07T13:01:02.675Z,100194.24
2018-12-07T13:03:31.790Z,100193.31
2018-12-07T13:06:00.702Z,100194.94
2018-12-07T13:08:29.833Z,100196.84
2018-12-07T13:10:58.717Z,100198.09
2018-12-07T13:13:27.510Z,100195.84
2018-12-07T13:15:56.441Z,100203.78
2018-12-07T13:18:25.448Z,100207.72
2018-12-07T13:20:54.463Z,100214.44
2018-12-07T13:23:23.662Z,100203.42
2018-12-07T13:25:52.641Z,100202.45
2018-12-07T13:28:21.566Z,100195.65
2018-12-07T13:30:50.617Z,100202.07
2018-12-07T13:33:19.607Z,100206.72
2018-12-07T13:35:48.722Z,100195.42
2018-12-07T13:38:17.743Z,100191.40
2018-12-07T13:40:46.757Z,100185.97
2018-12-07T13:43:16.025Z,100193.34
2018-12-07T13:45:45.155Z,100189.87
2018-12-07T13:48:14.598Z,100185.91
2018-12-07T13:50:43.701Z,100178.30
2018-12-07T13:53:13.838Z,100186.13
2018-12-07T13:55:42.909Z,100179.49
2018-12-07T13:58:12.098Z,100188.36
2018-12-07T14:00:41.889Z,100181.83
2018-12-07T14:03:11.371Z,100187.82
2018-12-07T14:05:40.882Z,100190.30
2018-12-07T14:08:09.915Z,100190.29
2018-12-07T14:10:38.953Z,100191.36
2018-12-07T14:13:09.138Z,100196.16
2018-12-07T14:15:38.837Z,100193.16
2018-12-07T14:18:08.257Z,100199.81
2018-12-07T14:20:37.380Z,100198.27
2018-12-07T14:23:06.473Z,100199.81
2018-12-07T14:25:36.064Z,100194.55
2018-12-07T14:28:05.635Z,100198.38
2018-12-07T14:30:36.139Z,100202.29
2018-12-07T14:33:05.519Z,100202.48
2018-12-07T14:35:34.974Z,100200.41
2018-12-07T14:38:04.730Z,100191.27
2018-12-07T14:40:33.973Z,100196.58
2018-12-07T14:43:03.259Z,100188.66
2018-12-07T14:45:32.542Z,100193.06
2018-12-07T14:48:01.841Z,100181.89
2018-12-07T14:50:31.195Z,100181.94
2018-12-07T14:53:00.413Z,100179.00
2018-12-07T14:55:30.038Z,100178.80
2018-12-07T14:57:59.230Z,100177.40
2018-12-07T15:00:29.545Z,100170.93
2018-12-07T15:02:59.130Z,100172.72
2018-12-07T15:05:28.459Z,100174.97
2018-12-07T15:07:58.155Z,100179.19
2018-12-07T15:10:27.728Z,100176.05
2018-12-07T15:12:57.069Z,100176.44
2018-12-07T15:15:26.419Z,100168.58
2018-12-07T15:17:55.770Z,100164.45
2018-12-07T15:20:25.018Z,100170.20
2018-12-07T15:22:54.095Z,100168.20
2018-12-07T15:25:23.693Z,100163.86
2018-12-07T15:27:52.786Z,100152.66
2018-12-07T15:30:22.334Z,100158.08
2018-12-07T15:32:51.378Z,100159.95
2018-12-07T15:35:20.482Z,100159.56
2018-12-07T15:37:49.707Z,100160.00
2018-12-07T15:40:18.986Z,100157.44
2018-12-07T15:42:48.369Z,100154.57
2018-12-07T15:45:17.714Z,100157.96
2018-12-07T15:47:47.666Z,100149.80
2018-12-07T15:50:24.692Z,100142.45
2018-12-07T15:52:47.835Z,100142.42
2018-12-07T15:55:17.786Z,100149.88
2018-12-07T15:57:47.020Z,100144.33
2018-12-07T16:00:16.245Z,100142.45
2018-12-07T16:02:45.613Z,100143.59
2018-12-07T16:05:14.979Z,100151.06
2018-12-07T16:07:44.318Z,100149.27
2018-12-07T16:10:13.943Z,100143.81
2018-12-07T16:12:43.107Z,100144.72
2018-12-07T16:15:12.113Z,100139.99
2018-12-07T16:17:41.991Z,100130.48
2018-12-07T16:20:14.793Z,100129.43
2018-12-07T16:22:44.514Z,100128.36
2018-12-07T16:25:14.331Z,100138.07
2018-12-07T16:27:43.967Z,100138.03
2018-12-07T16:30:12.963Z,100139.42
2018-12-07T16:32:42.085Z,100143.09
2018-12-07T16:35:11.462Z,100137.30
2018-12-07T16:37:40.960Z,100141.59
2018-12-07T16:40:11.026Z,100140.59
2018-12-07T16:42:40.512Z,100141.50
2018-12-07T16:45:10.097Z,100144.54
2018-12-07T16:47:39.143Z,100144.59
2018-12-07T16:50:08.451Z,100148.85
2018-12-07T16:52:37.653Z,100143.02
2018-12-07T16:55:06.824Z,100130.62
2018-12-07T16:57:35.925Z,100131.45
2018-12-07T17:00:05.818Z,100133.94
2018-12-07T17:02:35.229Z,100137.64
2018-12-07T17:05:06.131Z,100142.27
2018-12-07T17:07:35.273Z,100139.39
2018-12-07T17:10:05.366Z,100141.52
2018-12-07T17:12:34.555Z,100128.34
2018-12-07T17:15:03.864Z,100122.23
2018-12-07T17:17:33.018Z,100121.29
2018-12-07T17:20:02.141Z,100127.40
2018-12-07T17:22:32.225Z,100122.55
2018-12-07T17:25:01.755Z,100128.42
2018-12-07T17:27:31.103Z,100125.50
2018-12-07T17:30:00.441Z,100131.53
2018-12-07T17:32:29.477Z,100127.70
2018-12-07T17:34:59.037Z,100129.40
2018-12-07T17:37:28.214Z,100128.86
2018-12-07T17:39:57.316Z,100127.02
2018-12-07T17:42:29.705Z,100124.38
2018-12-07T17:44:59.380Z,100121.73
2018-12-07T17:47:28.446Z,100121.63
2018-12-07T17:49:57.537Z,100116.54
2018-12-07T17:52:26.553Z,100120.86
2018-12-07T17:54:55.793Z,100123.36
2018-12-07T17:57:24.870Z,100121.66
2018-12-07T17:59:53.935Z,100116.96
2018-12-07T18:02:23.100Z,100111.48
2018-12-07T18:04:52.231Z,100106.73
2018-12-07T18:07:21.756Z,100103.66
2018-12-07T18:09:50.862Z,100106.06
2018-12-07T18:12:20.213Z,100099.93
2018-12-07T18:14:49.949Z,100098.33
2018-12-07T18:17:19.000Z,100097.09
2018-12-07T18:19:48.215Z,100086.87
2018-12-07T18:22:18.138Z,100089.19
2018-12-07T18:24:47.365Z,100077.34
2018-12-07T18:27:16.887Z,100084.00
2018-12-07T18:29:46.734Z,100093.92
2018-12-07T18:32:16.326Z,100086.16
2018-12-07T18:34:45.586Z,100078.09
2018-12-07T18:37:14.881Z,100069.83
2018-12-07T18:39:44.335Z,100078.67
2018-12-07T18:42:13.671Z,100080.80
2018-12-07T18:44:43.068Z,100075.40
2018-12-07T18:47:12.526Z,100082.81
2018-12-07T18:49:41.526Z,100081.48
2018-12-07T18:52:10.803Z,100083.84
2018-12-07T18:54:40.487Z,100086.08
2018-12-07T18:57:10.896Z,100086.56
2018-12-07T18:59:40.085Z,100091.81
2018-12-07T19:02:09.319Z,100089.02
2018-12-07T19:04:38.559Z,100091.23
2018-12-07T19:07:08.819Z,100093.83
2018-12-07T19:09:38.637Z,100090.95
2018-12-07T19:12:08.813Z,100089.09
2018-12-07T19:14:38.942Z,100095.55
2018-12-07T19:17:08.131Z,100090.69
2018-12-07T19:19:38.552Z,100093.23
2018-12-07T19:22:08.549Z,100089.88
2018-12-07T19:24:38.180Z,100088.78
2018-12-07T19:27:07.968Z,100085.78
2018-12-07T19:29:36.970Z,100083.94
2018-12-07T19:32:06.284Z,100083.41
2018-12-07T19:34:35.714Z,100085.58
2018-12-07T19:37:05.248Z,100084.94
2018-12-07T19:39:34.511Z,100086.11
2018-12-07T19:42:03.451Z,100087.27
2018-12-07T19:44:32.463Z,100087.63
2018-12-07T19:47:01.666Z,100086.09
2018-12-07T19:49:31.906Z,100096.51
2018-12-07T19:52:01.714Z,100095.03
2018-12-07T19:54:30.826Z,100088.89
2018-12-07T19:56:59.745Z,100089.05
2018-12-07T19:59:28.828Z,100080.16
2018-12-07T20:01:57.904Z,100084.08
2018-12-07T20:04:27.519Z,100080.39
2018-12-07T20:06:56.650Z,100081.33
2018-12-07T20:09:25.883Z,100071.73
2018-12-07T20:11:55.089Z,100066.82
2018-12-07T20:14:24.578Z,100068.34
2018-12-07T20:16:53.993Z,100067.10
2018-12-07T20:19:23.132Z,100062.56
2018-12-07T20:21:52.078Z,100061.28
2018-12-07T20:24:20.993Z,100057.27
2018-12-07T20:26:50.277Z,100057.55
2018-12-07T20:29:20.097Z,100050.74
2018-12-07T20:31:49.166Z,100055.25
2018-12-07T20:34:18.441Z,100057.77
2018-12-07T20:36:48.071Z,100054.75
2018-12-07T20:39:17.237Z,100053.44
2018-12-07T20:41:46.497Z,100051.99
2018-12-07T20:44:15.675Z,100050.87
2018-12-07T20:46:45.301Z,100050.55
2018-12-07T20:49:14.655Z,100046.11
2018-12-07T20:51:44.079Z,100040.15
2018-12-07T20:54:13.499Z,100039.50
2018-12-07T20:56:42.953Z,100040.13
2018-12-07T20:59:12.558Z,100027.64
2018-12-07T21:01:41.611Z,100019.15
2018-12-07T21:04:37.045Z,100021.91
2018-12-07T21:07:37.586Z,100023.64
2018-12-07T21:10:35.314Z,100013.53
2018-12-07T21:13:44.896Z,100011.02
2018-12-07T21:17:18.822Z,100013.65
2018-12-07T21:19:58.140Z,100009.98
2018-12-07T21:22:28.736Z,100005.53
2018-12-07T21:24:58.107Z,99996.45
2018-12-07T21:27:27.591Z,100004.44
2018-12-07T21:33:32.176Z,100004.81
2018-12-07T21:36:45.222Z,100000.95
2018-12-07T21:39:22.619Z,99999.40
2018-12-07T21:41:51.792Z,99996.19
2018-12-07T21:44:20.914Z,99995.88
2018-12-07T21:46:50.012Z,100000.82
2018-12-07T21:49:18.974Z,99993.34
2018-12-07T21:51:54.229Z,99980.11
2018-12-07T21:54:30.141Z,99970.83
2018-12-07T21:56:59.086Z,99960.33
2018-12-07T21:59:28.027Z,99948.66
2018-12-07T22:01:57.267Z,99957.47
2018-12-07T22:04:26.442Z,99960.48
2018-12-07T22:06:55.552Z,99948.69
2018-12-07T22:09:24.651Z,99946.20
2018-12-07T22:11:53.757Z,99944.33
2018-12-07T22:14:22.817Z,99942.70
2018-12-07T22:16:52.209Z,99942.94
2018-12-07T22:19:21.532Z,99934.47
2018-12-07T22:21:50.497Z,99933.90
2018-12-07T22:24:19.587Z,99936.03
2018-12-07T22:26:48.673Z,99923.35
2018-12-07T22:29:17.877Z,99922.92
2018-12-07T22:31:47.138Z,99920.22
2018-12-07T22:34:16.370Z,99912.69
2018-12-07T22:36:45.673Z,99928.69
2018-12-07T22:39:15.330Z,99927.17
2018-12-07T22:41:44.501Z,99924.16
2018-12-07T22:44:13.541Z,99918.63
2018-12-07T22:46:42.605Z,99918.67
2018-12-07T22:49:11.563Z,99917.97
2018-12-07T22:51:40.456Z,99918.94
2018-12-07T22:54:09.578Z,99921.38
2018-12-07T22:56:38.810Z,99911.61
2018-12-07T22:59:07.705Z,99906.05
2018-12-07T23:01:36.748Z,99902.36
2018-12-07T23:04:05.874Z,99894.33
2018-12-07T23:06:34.874Z,99884.97
2018-12-07T23:09:06.117Z,99884.07
2018-12-07T23:11:35.128Z,99877.66
2018-12-07T23:14:04.012Z,99884.59
2018-12-07T23:16:33.050Z,99878.42
2018-12-07T23:19:02.088Z,99871.52
2018-12-07T23:21:30.988Z,99866.98
2018-12-07T23:23:59.901Z,99875.14
2018-12-07T23:26:28.868Z,99876.22
2018-12-07T23:28:57.664Z,99875.52
2018-12-07T23:31:26.933Z,99869.22
2018-12-07T23:33:55.996Z,99866.84
2018-12-07T23:36:24.989Z,99871.66
2018-12-07T23:38:53.896Z,99870.05
2018-12-07T23:41:22.913Z,99869.05
2018-12-07T23:43:51.926Z,99865.14
2018-12-07T23:46:20.865Z,99859.98
2018-12-07T23:48:50.667Z,99856.87
2018-12-07T23:51:19.591Z,99857.38
2018-12-07T23:53:48.594Z,99854.91
2018-12-07T23:56:17.490Z,99858.91
2018-12-07T23:58:46.641Z,99864.31
